createdAt,value
2023-01-20T00:01:14.357Z,98241.25
2023-01-20T00:02:48.971Z,98239.34
2023-01-20T00:04:22.409Z,98232.22
2023-01-20T00:05:54.843Z,98229.81
2023-01-20T00:07:28.000Z,98220.50
2023-01-20T00:09:02.628Z,98210.00
2023-01-20T00:10:38.478Z,98202.53
2023-01-20T00:12:11.765Z,98214.16
2023-01-20T00:13:44.900Z,98209.88
2023-01-20T00:15:18.076Z,98220.81
2023-01-20T00:16:51.225Z,98209.91
2023-01-20T00:18:26.178Z,98227.41
2023-01-20T00:19:59.216Z,98218.00
2023-01-20T00:21:32.519Z,98239.00
2023-01-20T00:23:05.752Z,98220.31
2023-01-20T00:24:38.973Z,98207.88
2023-01-20T00:26:14.140Z,98209.25
2023-01-20T00:27:47.856Z,98225.97
2023-01-20T00:29:21.063Z,98233.19
2023-01-20T00:30:54.539Z,98212.47
2023-01-20T00:32:27.739Z,98217.22
2023-01-20T00:34:02.053Z,98212.44
2023-01-20T00:35:35.219Z,98198.75
2023-01-20T00:37:08.479Z,98211.75
2023-01-20T00:38:41.892Z,98208.50
2023-01-20T00:40:14.257Z,98205.50
2023-01-20T00:41:47.575Z,98216.25
2023-01-20T00:43:19.893Z,98224.19
2023-01-20T00:44:52.993Z,98215.47
2023-01-20T00:46:26.186Z,98213.63
2023-01-20T00:47:59.464Z,98207.94
2023-01-20T00:49:34.181Z,98192.81
2023-01-20T00:51:07.483Z,98190.84
2023-01-20T00:52:40.674Z,98180.06
2023-01-20T00:54:13.877Z,98179.31
2023-01-20T00:55:46.215Z,98186.13
2023-01-20T00:57:19.338Z,98189.53
2023-01-20T00:58:52.464Z,98188.84
2023-01-20T01:00:25.831Z,98174.19
2023-01-20T01:01:59.775Z,98180.56
2023-01-20T01:03:33.114Z,98186.59
2023-01-20T01:05:08.260Z,98192.75
2023-01-20T01:06:41.454Z,98200.59
2023-01-20T01:08:14.433Z,98197.16
2023-01-20T01:09:47.584Z,98190.31
2023-01-20T01:11:20.027Z,98195.16
2023-01-20T01:12:53.296Z,98195.81
2023-01-20T01:14:26.758Z,98186.34
2023-01-20T01:15:58.881Z,98187.13
2023-01-20T01:17:32.056Z,98193.41
2023-01-20T01:19:05.304Z,98188.47
2023-01-20T01:20:40.816Z,98184.19
2023-01-20T01:22:13.895Z,98169.97
2023-01-20T01:23:47.458Z,98181.94
2023-01-20T01:25:21.076Z,98192.28
2023-01-20T01:26:54.975Z,98189.47
2023-01-20T01:28:28.109Z,98187.75
2023-01-20T01:30:01.274Z,98179.16
2023-01-20T01:31:34.842Z,98179.28
2023-01-20T01:33:08.330Z,98192.78
2023-01-20T01:34:41.468Z,98175.56
2023-01-20T01:36:18.445Z,98165.00
2023-01-20T01:37:51.730Z,98170.63
2023-01-20T01:39:25.147Z,98184.66
2023-01-20T01:40:58.601Z,98154.78
2023-01-20T01:42:31.953Z,98159.19
2023-01-20T01:44:09.416Z,98142.81
2023-01-20T01:45:42.860Z,98145.78
2023-01-20T01:47:16.031Z,98170.91
2023-01-20T01:48:49.229Z,98165.88
2023-01-20T01:50:25.294Z,98160.47
2023-01-20T01:52:02.714Z,98157.56
2023-01-20T01:53:42.794Z,98150.75
2023-01-20T01:55:19.417Z,98163.00
2023-01-20T01:56:53.807Z,98164.25
2023-01-20T01:58:29.827Z,98150.22
2023-01-20T02:00:02.910Z,98158.03
2023-01-20T02:01:49.844Z,98146.41
2023-01-20T02:03:22.694Z,98147.88
2023-01-20T02:04:56.129Z,98148.75
2023-01-20T02:06:34.216Z,98154.03
2023-01-20T02:08:09.628Z,98145.63
2023-01-20T02:09:43.143Z,98150.34
2023-01-20T02:11:16.476Z,98159.91
2023-01-20T02:12:51.835Z,98160.84
2023-01-20T02:14:29.991Z,98177.47
2023-01-20T02:16:13.671Z,98181.88
2023-01-20T02:17:58.606Z,98202.97
2023-01-20T02:20:16.500Z,98202.28
2023-01-20T02:22:11.825Z,98200.16
2023-01-20T02:24:08.639Z,98222.28
2023-01-20T02:26:10.970Z,98246.50
2023-01-20T02:28:18.771Z,98274.56
2023-01-20T02:30:13.117Z,98286.19
2023-01-20T02:32:01.340Z,98304.25
2023-01-20T02:33:40.365Z,98323.06
2023-01-20T02:35:19.540Z,98329.44
2023-01-20T02:36:56.154Z,98330.63
2023-01-20T02:38:37.120Z,98311.28
2023-01-20T02:40:18.273Z,98326.28
2023-01-20T02:42:00.166Z,98310.66
2023-01-20T02:43:39.612Z,98309.72
2023-01-20T02:45:19.398Z,98286.91
2023-01-20T02:47:02.025Z,98282.50
2023-01-20T02:48:42.363Z,98266.97
2023-01-20T02:50:21.083Z,98293.06
2023-01-20T02:51:59.439Z,98286.44
2023-01-20T02:53:39.480Z,98288.09
2023-01-20T02:55:18.139Z,98294.88
2023-01-20T02:56:53.625Z,98294.69
2023-01-20T02:58:34.587Z,98290.94
2023-01-20T03:00:14.083Z,98297.84
2023-01-20T03:01:52.834Z,98297.59
2023-01-20T03:03:34.121Z,98293.78
2023-01-20T03:05:11.254Z,98293.63
2023-01-20T03:06:50.468Z,98292.41
2023-01-20T03:08:25.442Z,98273.13
2023-01-20T03:10:02.601Z,98269.47
2023-01-20T03:11:40.405Z,98265.81
2023-01-20T03:13:18.055Z,98260.63
2023-01-20T03:14:51.987Z,98247.63
2023-01-20T03:16:27.950Z,98236.13
2023-01-20T03:18:00.120Z,98215.84
2023-01-20T03:19:35.029Z,98206.16
2023-01-20T03:21:10.120Z,98212.69
2023-01-20T03:22:43.423Z,98216.28
2023-01-20T03:24:16.561Z,98211.59
2023-01-20T03:25:51.753Z,98213.75
2023-01-20T03:27:25.367Z,98222.78
2023-01-20T03:28:59.113Z,98217.50
2023-01-20T03:30:32.749Z,98215.81
2023-01-20T03:32:09.687Z,98210.53
2023-01-20T03:33:44.215Z,98217.50
2023-01-20T03:35:19.659Z,98210.53
2023-01-20T03:36:54.428Z,98215.94
2023-01-20T03:38:27.862Z,98220.50
2023-01-20T03:40:01.801Z,98200.91
2023-01-20T03:41:43.223Z,98218.44
2023-01-20T03:43:21.809Z,98203.97
2023-01-20T03:45:07.736Z,98210.19
2023-01-20T03:46:46.677Z,98206.63
2023-01-20T03:48:29.878Z,98203.22
2023-01-20T03:50:10.458Z,98205.41
2023-01-20T03:51:55.669Z,98211.66
2023-01-20T03:53:34.975Z,98221.72
2023-01-20T03:55:14.265Z,98205.06
2023-01-20T03:56:56.158Z,98200.88
2023-01-20T03:58:32.676Z,98194.66
2023-01-20T04:00:08.512Z,98199.31
2023-01-20T04:01:46.073Z,98202.88
2023-01-20T04:03:22.679Z,98190.91
2023-01-20T04:04:57.620Z,98198.06
2023-01-20T04:06:32.713Z,98196.50
2023-01-20T04:08:10.225Z,98190.66
2023-01-20T04:09:48.788Z,98172.59
2023-01-20T04:11:22.236Z,98172.72
2023-01-20T04:12:54.638Z,98178.88
2023-01-20T04:14:28.195Z,98188.81
2023-01-20T04:16:03.290Z,98177.59
2023-01-20T04:17:36.612Z,98167.91
2023-01-20T04:19:09.747Z,98154.81
2023-01-20T04:20:43.470Z,98146.97
2023-01-20T04:22:26.740Z,98141.69
2023-01-20T04:24:04.751Z,98127.78
2023-01-20T04:25:37.921Z,98132.09
2023-01-20T04:27:11.180Z,98118.72
2023-01-20T04:28:44.393Z,98116.03
2023-01-20T04:30:18.096Z,98099.38
2023-01-20T04:31:51.312Z,98094.25
2023-01-20T04:33:24.595Z,98099.53
2023-01-20T04:34:57.813Z,98088.97
2023-01-20T04:36:31.056Z,98072.44
2023-01-20T04:38:04.191Z,98115.00
2023-01-20T04:39:38.796Z,98121.94
2023-01-20T04:41:13.421Z,98107.97
2023-01-20T04:42:46.671Z,98102.72
2023-01-20T04:44:19.747Z,98096.56
2023-01-20T04:45:53.283Z,98086.63
2023-01-20T04:47:26.477Z,98084.88
2023-01-20T04:48:59.623Z,98074.75
2023-01-20T04:50:32.886Z,98078.38
2023-01-20T04:52:05.329Z,98082.50
2023-01-20T04:53:38.602Z,98090.94
2023-01-20T04:55:13.938Z,98090.34
2023-01-20T04:56:49.113Z,98086.97
2023-01-20T04:58:22.443Z,98108.84
2023-01-20T04:59:55.705Z,98085.75
2023-01-20T05:01:28.928Z,98074.06
2023-01-20T05:03:02.569Z,98056.38
2023-01-20T05:04:38.158Z,98063.22
2023-01-20T05:06:12.111Z,98082.44
2023-01-20T05:07:45.338Z,98076.72
2023-01-20T05:09:18.750Z,98055.31
2023-01-20T05:10:53.515Z,98040.16
2023-01-20T05:12:26.888Z,98042.06
2023-01-20T05:13:59.102Z,98060.59
2023-01-20T05:15:32.361Z,98044.91
2023-01-20T05:17:05.851Z,98055.19
2023-01-20T05:18:39.392Z,98058.75
2023-01-20T05:20:12.925Z,98055.03
2023-01-20T05:21:46.228Z,98051.22
2023-01-20T05:23:19.747Z,98040.59
2023-01-20T05:24:53.096Z,98028.31
2023-01-20T05:26:27.794Z,98023.53
2023-01-20T05:28:01.158Z,98032.75
2023-01-20T05:29:34.804Z,98036.09
2023-01-20T05:31:08.167Z,98010.91
2023-01-20T05:32:41.569Z,98004.63
2023-01-20T05:34:16.049Z,97976.25
2023-01-20T05:35:49.413Z,97987.00
2023-01-20T05:37:22.485Z,97980.13
2023-01-20T05:38:56.029Z,97987.25
2023-01-20T05:40:29.072Z,97984.63
2023-01-20T05:42:04.160Z,97986.19
2023-01-20T05:43:37.592Z,97975.94
2023-01-20T05:45:10.505Z,97985.38
2023-01-20T05:46:43.660Z,97967.72
2023-01-20T05:48:17.319Z,97972.81
2023-01-20T05:49:50.402Z,97972.53
2023-01-20T05:51:23.662Z,97968.06
2023-01-20T05:52:56.891Z,97973.13
2023-01-20T05:54:30.222Z,97970.69
2023-01-20T05:56:05.371Z,97957.50
2023-01-20T05:57:40.073Z,97963.25
2023-01-20T05:59:13.185Z,97980.44
2023-01-20T06:00:46.699Z,97969.84
2023-01-20T06:02:20.984Z,97975.19
2023-01-20T06:03:54.432Z,97971.44
2023-01-20T06:05:28.460Z,97967.94
2023-01-20T06:07:01.867Z,97952.06
2023-01-20T06:08:35.375Z,97936.41
2023-01-20T06:10:08.878Z,97947.28
2023-01-20T06:11:42.036Z,97940.44
2023-01-20T06:13:17.468Z,97948.97
2023-01-20T06:14:50.781Z,97953.09
2023-01-20T06:16:24.191Z,97942.00
2023-01-20T06:17:57.360Z,97943.84
2023-01-20T06:19:30.905Z,97938.44
2023-01-20T06:21:04.032Z,97941.81
2023-01-20T06:22:37.418Z,97955.78
2023-01-20T06:24:10.543Z,97967.72
2023-01-20T06:25:44.299Z,97957.88
2023-01-20T06:27:17.364Z,97950.22
2023-01-20T06:28:52.086Z,97923.84
2023-01-20T06:30:25.150Z,97922.28
2023-01-20T06:31:58.725Z,97925.84
2023-01-20T06:33:32.418Z,97943.38
2023-01-20T06:35:06.560Z,97954.84
2023-01-20T06:36:39.765Z,97968.75
2023-01-20T06:38:13.102Z,97954.53
2023-01-20T06:39:46.222Z,97946.50
2023-01-20T06:41:20.778Z,97957.03
2023-01-20T06:42:53.884Z,97964.44
2023-01-20T06:44:28.933Z,97953.34
2023-01-20T06:46:02.270Z,97959.16
2023-01-20T06:47:35.587Z,97970.47
2023-01-20T06:49:08.690Z,97963.41
2023-01-20T06:50:42.030Z,97936.09
2023-01-20T06:52:15.206Z,97941.31
2023-01-20T06:53:49.102Z,97943.19
2023-01-20T06:55:22.226Z,97937.72
2023-01-20T06:56:55.626Z,97941.31
2023-01-20T06:58:30.537Z,97941.31
2023-01-20T07:00:06.459Z,97946.25
2023-01-20T07:01:40.672Z,97942.00
2023-01-20T07:03:14.335Z,97939.59
2023-01-20T07:04:47.493Z,97950.00
2023-01-20T07:06:27.381Z,97976.09
2023-01-20T07:08:00.442Z,97969.72
2023-01-20T07:09:33.980Z,97972.91
2023-01-20T07:11:07.256Z,97952.56
2023-01-20T07:12:40.584Z,97995.72
2023-01-20T07:14:13.701Z,98017.25
2023-01-20T07:15:48.338Z,97987.16
2023-01-20T07:17:21.583Z,98006.41
2023-01-20T07:18:55.171Z,97975.66
2023-01-20T07:20:28.263Z,97993.97
2023-01-20T07:22:01.759Z,97977.81
2023-01-20T07:23:35.069Z,97969.56
2023-01-20T07:25:08.668Z,97960.09
2023-01-20T07:26:41.829Z,97965.69
2023-01-20T07:28:15.518Z,97957.47
2023-01-20T07:29:48.671Z,97953.63
2023-01-20T07:31:25.776Z,97976.16
2023-01-20T07:32:58.893Z,97968.06
2023-01-20T07:34:32.620Z,97968.13
2023-01-20T07:36:08.006Z,97974.97
2023-01-20T07:37:41.487Z,97972.34
2023-01-20T07:39:15.620Z,97956.47
2023-01-20T07:40:49.226Z,97967.66
2023-01-20T07:42:22.343Z,97964.50
2023-01-20T07:43:55.775Z,97960.97
2023-01-20T07:45:28.960Z,97947.53
2023-01-20T07:47:03.930Z,97950.00
2023-01-20T07:48:37.094Z,97953.03
2023-01-20T07:50:11.439Z,97972.00
2023-01-20T07:51:44.516Z,97968.88
2023-01-20T07:53:17.845Z,97955.53
2023-01-20T07:54:50.984Z,97946.81
2023-01-20T07:56:26.548Z,97963.28
2023-01-20T07:57:59.996Z,97953.78
2023-01-20T07:59:33.672Z,97949.63
2023-01-20T08:01:10.950Z,97952.44
2023-01-20T08:02:45.680Z,97952.63
2023-01-20T08:04:19.183Z,97933.47
2023-01-20T08:05:52.844Z,97945.09
2023-01-20T08:07:26.080Z,97931.59
2023-01-20T08:09:02.477Z,97920.81
2023-01-20T08:10:35.575Z,97920.34
2023-01-20T08:12:09.091Z,97906.16
2023-01-20T08:13:42.742Z,97910.88
2023-01-20T08:15:16.773Z,97914.88
2023-01-20T08:16:50.031Z,97922.84
2023-01-20T08:18:24.809Z,97932.19
2023-01-20T08:19:57.886Z,97930.09
2023-01-20T08:21:33.123Z,97921.72
2023-01-20T08:23:06.255Z,97929.69
2023-01-20T08:24:39.748Z,97933.66
2023-01-20T08:26:12.898Z,97944.47
2023-01-20T08:27:48.567Z,97928.06
2023-01-20T08:29:21.700Z,97913.03
2023-01-20T08:30:55.373Z,97910.88
2023-01-20T08:32:28.495Z,97916.44
2023-01-20T08:34:03.495Z,97909.34
2023-01-20T08:35:37.124Z,97894.31
2023-01-20T08:37:10.649Z,97901.34
2023-01-20T08:38:44.569Z,97884.25
2023-01-20T08:40:18.114Z,97889.47
2023-01-20T08:41:52.168Z,97889.09
2023-01-20T08:43:25.583Z,97872.44
2023-01-20T08:44:58.681Z,97874.13
2023-01-20T08:46:32.375Z,97863.41
2023-01-20T08:48:05.625Z,97864.88
2023-01-20T08:49:40.544Z,97873.75
2023-01-20T08:51:15.941Z,97877.38
2023-01-20T08:52:49.331Z,97888.25
2023-01-20T08:54:22.745Z,97895.53
2023-01-20T08:55:57.364Z,97894.38
2023-01-20T08:57:30.793Z,97889.13
2023-01-20T08:59:04.608Z,97890.66
2023-01-20T09:00:37.702Z,97875.25
2023-01-20T09:02:11.321Z,97883.63
2023-01-20T09:03:55.415Z,97902.75
2023-01-20T09:05:38.739Z,97893.91
2023-01-20T09:07:13.320Z,97898.91
2023-01-20T09:08:47.156Z,97889.97
2023-01-20T09:10:20.725Z,97898.00
2023-01-20T09:11:54.764Z,97889.09
2023-01-20T09:13:28.151Z,97914.69
2023-01-20T09:15:04.721Z,97916.03
2023-01-20T09:16:38.071Z,97930.63
2023-01-20T09:18:11.415Z,97925.78
2023-01-20T09:19:44.658Z,97942.56
2023-01-20T09:21:19.268Z,97924.75
2023-01-20T09:22:52.437Z,97938.69
2023-01-20T09:24:25.941Z,97957.75
2023-01-20T09:26:01.289Z,97963.44
2023-01-20T09:27:34.485Z,97968.09
2023-01-20T09:29:10.909Z,97975.47
2023-01-20T09:30:44.708Z,97989.66
2023-01-20T09:32:18.056Z,97996.19
2023-01-20T09:33:51.255Z,98008.03
2023-01-20T09:35:24.439Z,98006.34
2023-01-20T09:37:22.401Z,98027.69
2023-01-20T09:39:13.276Z,98034.63
2023-01-20T09:41:15.779Z,98037.25
2023-01-20T09:43:20.609Z,98029.47
2023-01-20T09:45:05.420Z,97989.53
2023-01-20T09:47:10.301Z,97962.25
2023-01-20T09:49:09.340Z,97982.94
2023-01-20T09:51:09.087Z,97997.09
2023-01-20T09:53:03.790Z,98004.25
2023-01-20T09:54:44.516Z,98017.19
2023-01-20T09:56:20.494Z,98015.69
2023-01-20T09:58:02.382Z,98023.53
2023-01-20T09:59:41.830Z,98014.63
2023-01-20T10:01:24.517Z,98016.63
2023-01-20T10:03:06.727Z,98022.88
2023-01-20T10:04:45.072Z,98022.69
2023-01-20T10:06:26.629Z,98012.06
2023-01-20T10:08:05.865Z,98020.56
2023-01-20T10:09:45.502Z,98018.47
2023-01-20T10:11:21.108Z,98004.44
2023-01-20T10:13:04.328Z,98009.38
2023-01-20T10:14:42.091Z,98001.13
2023-01-20T10:16:25.604Z,98005.19
2023-01-20T10:18:04.963Z,97986.19
2023-01-20T10:19:44.502Z,97968.38
2023-01-20T10:21:23.428Z,97968.91
2023-01-20T10:23:04.385Z,97972.50
2023-01-20T10:24:44.581Z,97953.19
2023-01-20T10:26:21.570Z,97956.78
2023-01-20T10:27:58.047Z,97954.91
2023-01-20T10:29:37.194Z,97947.56
2023-01-20T10:31:13.702Z,97954.25
2023-01-20T10:32:54.029Z,97943.84
2023-01-20T10:34:33.067Z,97936.84
2023-01-20T10:36:13.784Z,97916.34
2023-01-20T10:37:47.108Z,97900.09
2023-01-20T10:39:31.998Z,97881.94
2023-01-20T10:41:15.896Z,97881.41
2023-01-20T10:42:54.502Z,97865.91
2023-01-20T10:44:27.772Z,97859.19
2023-01-20T10:46:21.725Z,97845.28
2023-01-20T10:48:07.359Z,97833.13
2023-01-20T10:50:04.544Z,97826.06
2023-01-20T10:51:46.808Z,97827.41
2023-01-20T10:53:35.717Z,97828.91
2023-01-20T10:55:23.385Z,97829.97
2023-01-20T10:57:00.320Z,97840.94
2023-01-20T10:58:35.504Z,97826.22
2023-01-20T11:00:25.956Z,97820.19
2023-01-20T11:02:12.052Z,97808.09
2023-01-20T11:03:48.037Z,97786.81
2023-01-20T11:05:23.628Z,97793.13
2023-01-20T11:07:01.091Z,97785.72
2023-01-20T11:08:35.204Z,97786.78
2023-01-20T11:10:17.094Z,97777.63
2023-01-20T11:11:50.433Z,97791.44
2023-01-20T11:13:23.609Z,97783.94
2023-01-20T11:15:00.931Z,97786.84
2023-01-20T11:16:34.490Z,97787.84
2023-01-20T11:18:26.536Z,97797.97
2023-01-20T11:20:06.870Z,97803.44
2023-01-20T11:21:41.563Z,97802.13
2023-01-20T11:23:22.906Z,97796.78
2023-01-20T11:24:58.914Z,97806.63
2023-01-20T11:26:36.294Z,97807.34
2023-01-20T11:28:18.808Z,97791.47
2023-01-20T11:29:58.199Z,97792.44
2023-01-20T11:31:41.068Z,97787.34
2023-01-20T11:33:24.704Z,97777.41
2023-01-20T11:34:58.796Z,97742.28
2023-01-20T11:36:32.086Z,97740.09
2023-01-20T11:38:25.107Z,97752.00
2023-01-20T11:40:01.237Z,97755.53
2023-01-20T11:41:35.891Z,97751.78
2023-01-20T11:43:29.575Z,97756.63
2023-01-20T11:45:20.680Z,97761.47
2023-01-20T11:46:55.208Z,97765.56
2023-01-20T11:48:28.725Z,97763.16
2023-01-20T11:50:31.879Z,97773.78
2023-01-20T11:52:21.228Z,97763.03
2023-01-20T11:54:08.698Z,97766.06
2023-01-20T11:55:49.812Z,97751.78
2023-01-20T11:57:24.383Z,97741.16
2023-01-20T11:59:01.989Z,97740.88
2023-01-20T12:00:41.914Z,97736.66
2023-01-20T12:02:25.121Z,97734.38
2023-01-20T12:04:23.298Z,97721.75
2023-01-20T12:06:02.507Z,97711.84
2023-01-20T12:07:40.885Z,97702.16
2023-01-20T12:09:17.956Z,97709.66
2023-01-20T12:10:52.449Z,97711.59
2023-01-20T12:12:34.392Z,97719.56
2023-01-20T12:14:23.457Z,97713.53
2023-01-20T12:16:01.409Z,97723.56
2023-01-20T12:17:47.148Z,97722.97
2023-01-20T12:19:28.483Z,97712.44
2023-01-20T12:21:09.200Z,97706.75
2023-01-20T12:22:49.709Z,97711.84
2023-01-20T12:24:52.466Z,97708.34
2023-01-20T12:26:28.347Z,97697.69
2023-01-20T12:28:11.053Z,97695.75
2023-01-20T12:29:46.107Z,97696.31
2023-01-20T12:31:20.604Z,97679.88
2023-01-20T12:32:53.978Z,97680.38
2023-01-20T12:34:30.810Z,97673.34
2023-01-20T12:36:34.912Z,97681.34
2023-01-20T12:38:09.522Z,97686.06
2023-01-20T12:40:08.497Z,97682.56
2023-01-20T12:42:00.695Z,97694.69
2023-01-20T12:43:54.210Z,97691.06
2023-01-20T12:45:42.742Z,97715.00
2023-01-20T12:47:29.876Z,97718.84
2023-01-20T12:49:21.060Z,97720.78
2023-01-20T12:51:10.445Z,97714.13
2023-01-20T12:53:01.267Z,97704.59
2023-01-20T12:54:58.626Z,97723.94
2023-01-20T12:56:41.037Z,97725.03
2023-01-20T12:58:25.245Z,97722.25
2023-01-20T13:00:15.061Z,97727.19
2023-01-20T13:02:05.075Z,97732.28
2023-01-20T13:04:27.249Z,97721.75
2023-01-20T13:06:15.188Z,97733.84
2023-01-20T13:08:04.603Z,97741.59
2023-01-20T13:10:02.289Z,97737.13
2023-01-20T13:11:51.420Z,97730.09
2023-01-20T13:13:56.536Z,97726.09
2023-01-20T13:15:39.531Z,97733.94
2023-01-20T13:17:20.628Z,97734.06
2023-01-20T13:19:04.457Z,97727.56
2023-01-20T13:20:42.469Z,97731.69
2023-01-20T13:22:19.253Z,97731.41
2023-01-20T13:23:53.792Z,97747.00
2023-01-20T13:25:27.820Z,97749.88
2023-01-20T13:27:03.417Z,97754.09
2023-01-20T13:28:36.703Z,97747.59
2023-01-20T13:30:42.989Z,97755.56
2023-01-20T13:32:35.063Z,97756.78
2023-01-20T13:34:36.497Z,97759.66
2023-01-20T13:36:18.918Z,97762.31
2023-01-20T13:37:54.497Z,97761.03
2023-01-20T13:39:42.385Z,97767.09
2023-01-20T13:41:50.110Z,97757.00
2023-01-20T13:43:49.675Z,97747.31
2023-01-20T13:45:26.391Z,97732.31
2023-01-20T13:47:01.099Z,97735.09
2023-01-20T13:48:35.685Z,97728.94
2023-01-20T13:50:24.219Z,97728.09
2023-01-20T13:51:57.620Z,97708.09
2023-01-20T13:53:30.883Z,97700.13
2023-01-20T13:55:29.472Z,97696.88
2023-01-20T13:57:47.152Z,97703.72
2023-01-20T13:59:20.229Z,97699.84
2023-01-20T14:00:55.549Z,97685.31
2023-01-20T14:02:37.526Z,97684.31
2023-01-20T14:04:18.651Z,97694.94
2023-01-20T14:05:53.064Z,97705.06
2023-01-20T14:07:28.428Z,97700.94
2023-01-20T14:09:02.223Z,97720.25
2023-01-20T14:10:35.339Z,97713.91
2023-01-20T14:12:10.683Z,97724.53
2023-01-20T14:13:56.227Z,97726.81
2023-01-20T14:15:38.152Z,97728.75
2023-01-20T14:17:16.766Z,97719.53
2023-01-20T14:18:53.235Z,97718.34
2023-01-20T14:20:28.606Z,97715.81
2023-01-20T14:22:04.116Z,97711.56
2023-01-20T14:23:39.465Z,97729.78
2023-01-20T14:25:21.868Z,97731.47
2023-01-20T14:27:07.564Z,97736.66
2023-01-20T14:28:49.886Z,97740.03
2023-01-20T14:30:25.776Z,97730.38
2023-01-20T14:31:59.003Z,97725.19
2023-01-20T14:33:32.540Z,97732.81
2023-01-20T14:35:15.595Z,97730.28
2023-01-20T14:36:49.307Z,97745.25
2023-01-20T14:38:23.246Z,97755.75
2023-01-20T14:39:59.221Z,97763.00
2023-01-20T14:41:35.459Z,97771.38
2023-01-20T14:43:16.810Z,97764.47
2023-01-20T14:44:51.308Z,97773.38
2023-01-20T14:46:25.892Z,97777.22
2023-01-20T14:48:02.182Z,97791.25
2023-01-20T14:49:39.524Z,97788.72
2023-01-20T14:51:14.793Z,97790.13
2023-01-20T14:52:48.540Z,97794.34
2023-01-20T14:54:35.135Z,97794.88
2023-01-20T14:56:18.163Z,97795.72
2023-01-20T14:57:51.536Z,97802.97
2023-01-20T14:59:24.992Z,97791.47
2023-01-20T15:01:02.121Z,97775.75
2023-01-20T15:02:37.202Z,97771.31
2023-01-20T15:04:13.202Z,97757.91
2023-01-20T15:05:58.167Z,97769.63
2023-01-20T15:07:32.717Z,97795.75
2023-01-20T15:09:23.529Z,97807.78
2023-01-20T15:11:21.434Z,97810.69
2023-01-20T15:12:55.923Z,97801.97
2023-01-20T15:14:37.664Z,97805.56
2023-01-20T15:16:19.238Z,97786.34
2023-01-20T15:18:21.439Z,97798.03
2023-01-20T15:19:55.947Z,97805.59
2023-01-20T15:21:29.545Z,97803.91
2023-01-20T15:23:04.213Z,97814.84
2023-01-20T15:24:38.364Z,97814.09
2023-01-20T15:26:23.724Z,97815.16
2023-01-20T15:27:58.185Z,97809.44
2023-01-20T15:29:33.701Z,97814.34
2023-01-20T15:31:07.122Z,97816.25
2023-01-20T15:32:39.784Z,97821.66
2023-01-20T15:34:12.877Z,97827.94
2023-01-20T15:35:46.099Z,97835.91
2023-01-20T15:37:20.368Z,97834.94
2023-01-20T15:38:55.405Z,97835.13
2023-01-20T15:40:29.125Z,97837.78
2023-01-20T15:42:02.307Z,97841.19
2023-01-20T15:43:35.421Z,97836.84
2023-01-20T15:45:10.227Z,97835.91
2023-01-20T15:46:43.401Z,97838.75
2023-01-20T15:48:19.028Z,97842.38
2023-01-20T15:49:52.142Z,97844.28
2023-01-20T15:51:25.681Z,97856.38
2023-01-20T15:52:58.851Z,97868.47
2023-01-20T15:54:33.379Z,97899.69
2023-01-20T15:56:07.329Z,97900.53
2023-01-20T15:57:41.147Z,97891.03
2023-01-20T15:59:14.774Z,97910.81
2023-01-20T16:00:47.909Z,97921.34
2023-01-20T16:02:23.074Z,97929.31
2023-01-20T16:03:58.001Z,97936.94
2023-01-20T16:05:31.176Z,97945.84
2023-01-20T16:07:04.373Z,97952.66
2023-01-20T16:08:39.222Z,97969.69
2023-01-20T16:10:17.873Z,97967.47
2023-01-20T16:11:51.251Z,97979.88
2023-01-20T16:13:24.683Z,97984.16
2023-01-20T16:14:58.661Z,98005.41
2023-01-20T16:16:32.903Z,98003.81
2023-01-20T16:18:06.821Z,98022.50
2023-01-20T16:19:39.998Z,98029.50
2023-01-20T16:21:14.160Z,98033.94
2023-01-20T16:22:47.678Z,98040.19
2023-01-20T16:24:20.773Z,98048.94
2023-01-20T16:25:56.163Z,98059.09
2023-01-20T16:27:29.305Z,98052.09
2023-01-20T16:29:04.905Z,98069.72
2023-01-20T16:30:38.121Z,98075.31
2023-01-20T16:32:11.589Z,98089.53
2023-01-20T16:33:44.972Z,98092.03
2023-01-20T16:35:20.511Z,98103.38
2023-01-20T16:36:53.665Z,98098.91
2023-01-20T16:38:27.212Z,98095.59
2023-01-20T16:40:00.943Z,98103.84
2023-01-20T16:41:38.472Z,98105.38
2023-01-20T16:43:12.707Z,98116.81
2023-01-20T16:44:45.968Z,98115.78
2023-01-20T16:46:22.102Z,98123.53
2023-01-20T16:47:55.943Z,98136.03
2023-01-20T16:49:29.212Z,98136.75
2023-01-20T16:51:05.476Z,98145.41
2023-01-20T16:52:38.651Z,98157.88
2023-01-20T16:54:12.010Z,98163.91
2023-01-20T16:55:46.093Z,98171.81
2023-01-20T16:57:20.732Z,98173.56
2023-01-20T16:58:57.786Z,98183.47
2023-01-20T17:00:32.101Z,98183.56
2023-01-20T17:02:11.053Z,98185.44
2023-01-20T17:03:44.275Z,98190.94
2023-01-20T17:05:22.359Z,98193.91
2023-01-20T17:06:55.963Z,98196.94
2023-01-20T17:08:29.090Z,98198.09
2023-01-20T17:10:01.264Z,98193.75
2023-01-20T17:11:36.222Z,98207.38
2023-01-20T17:13:11.337Z,98197.00
2023-01-20T17:14:44.549Z,98204.41
2023-01-20T17:16:18.119Z,98207.59
2023-01-20T17:17:54.592Z,98224.84
2023-01-20T17:19:28.059Z,98240.34
2023-01-20T17:21:06.265Z,98227.75
2023-01-20T17:22:40.272Z,98250.69
2023-01-20T17:24:13.644Z,98254.25
2023-01-20T17:25:47.090Z,98256.09
2023-01-20T17:27:20.314Z,98263.34
2023-01-20T17:28:57.510Z,98263.41
2023-01-20T17:30:30.826Z,98260.97
2023-01-20T17:32:04.400Z,98267.06
2023-01-20T17:33:37.841Z,98265.50
2023-01-20T17:35:11.908Z,98274.59
2023-01-20T17:36:45.449Z,98293.59
2023-01-20T17:38:19.262Z,98311.53
2023-01-20T17:39:52.827Z,98310.84
2023-01-20T17:41:26.290Z,98310.22
2023-01-20T17:42:59.999Z,98321.66
2023-01-20T17:44:35.474Z,98337.81
2023-01-20T17:46:15.003Z,98340.94
2023-01-20T17:47:52.181Z,98331.03
2023-01-20T17:49:26.165Z,98347.94
2023-01-20T17:51:00.513Z,98357.06
2023-01-20T17:52:34.219Z,98361.72
2023-01-20T17:54:07.930Z,98377.59
2023-01-20T17:55:41.451Z,98389.06
2023-01-20T17:57:15.089Z,98387.31
2023-01-20T17:58:49.542Z,98394.53
2023-01-20T18:00:24.615Z,98411.53
2023-01-20T18:01:58.114Z,98415.41
2023-01-20T18:03:32.126Z,98414.81
2023-01-20T18:05:06.271Z,98422.31
2023-01-20T18:06:39.961Z,98427.50
2023-01-20T18:08:13.924Z,98425.81
2023-01-20T18:09:47.787Z,98437.09
2023-01-20T18:11:23.219Z,98424.13
2023-01-20T18:12:56.634Z,98426.84
2023-01-20T18:14:30.402Z,98417.34
2023-01-20T18:16:11.626Z,98414.81
2023-01-20T18:17:44.850Z,98428.91
2023-01-20T18:19:18.434Z,98419.19
2023-01-20T18:20:52.243Z,98420.81
2023-01-20T18:22:25.883Z,98412.09
2023-01-20T18:24:00.221Z,98412.97
2023-01-20T18:25:33.536Z,98409.22
2023-01-20T18:27:07.129Z,98418.09
2023-01-20T18:28:40.876Z,98407.69
2023-01-20T18:30:15.227Z,98405.94
2023-01-20T18:31:50.287Z,98393.75
2023-01-20T18:33:25.655Z,98392.00
2023-01-20T18:34:59.484Z,98411.41
2023-01-20T18:36:35.503Z,98406.34
2023-01-20T18:38:08.884Z,98397.69
2023-01-20T18:39:42.638Z,98411.41
2023-01-20T18:41:16.316Z,98409.50
2023-01-20T18:42:49.850Z,98415.59
2023-01-20T18:44:24.456Z,98414.84
2023-01-20T18:45:58.307Z,98425.25
2023-01-20T18:47:33.664Z,98435.53
2023-01-20T18:49:09.708Z,98432.78
2023-01-20T18:50:43.285Z,98439.47
2023-01-20T18:52:19.381Z,98454.00
2023-01-20T18:53:56.680Z,98451.19
2023-01-20T18:55:31.871Z,98435.72
2023-01-20T18:57:08.687Z,98455.72
2023-01-20T18:58:46.096Z,98455.84
2023-01-20T19:00:20.975Z,98456.91
2023-01-20T19:01:56.636Z,98454.41